Share

Al-Nwaiseeb, Kuwait

Kuwait International (OKBK) Elev 180 ft | 29.22 °N, 47.98 °E | Change Station

Current weather conditions updated 14 minutes ago

Clear
Clear
81 °F
Feels Like 81 °F
N
0
Wind Variable Wind from North
Sunrise 5:17 AM
Sunset 6:13 PM
Moon Waning Gibbous

Today is forecast to be Cooler than yesterday.

Pressure 29.77 in
Visibility -9999.0 miles
Clouds
Dew Point 37 °F
Humidity 21%
Rainfall 0.00 in
Snow Depth Not available.
UV Not available.
Pollen Not available.
Air Quality Not available.
Flu Activity Not available.
METAR OKBK 172200Z 00000KT CAVOK 27/03 Q1008 NOSIG

More Conditions Fewer Conditions

Pressure 29.77 in
Visibility -9999.0 miles
Clouds
Dew Point 37 °F
Humidity 21%
Rainfall 0.00 in
Snow Depth Not available.
UV Not available.
Pollen Not available.
Air Quality Not available.
Flu Activity Not available.
METAR OKBK 172200Z 00000KT CAVOK 27/03 Q1008 NOSIG

More Conditions Fewer Conditions

10-Day Forecast

Almanac

Astronomy

Apr. 18, 2014 Rise Set
Actual Time 5:17 AM AST 6:13 PM AST
Civil Twilight 4:53 AM AST 6:37 PM AST
Nautical Twilight 4:25 AM AST 7:06 PM AST
Astronomical Twilight 3:55 AM AST 7:35 PM AST
Moon 9:25 PM AST (4/18) 7:29 AM AST (4/18)
Length of Visible Light 13h 43m
Length of Day
12h 55m
Tomorrow will be 1m 35s longer.
Waning Gibbous, 92% of the Moon is Illuminated
Apr 17
Waning Gibbous
Apr 22
Last Quarter
Apr 29
New
May 6
First Quarter
May 14
Full

Yesterday's Extremes

Country Highs Country Lows

Community

  • Morning Light
    Morning Light
  • New Day
    New Day
  • Lake Michigan Sunrise
    Lake Michigan Sunrise
  • sunset from izmir, narlıdere
    sunset from izmir, narlıdere
  • oregon cherry
    oregon cherry

WunderPhotos

Upload Photos

1,702,154 photos uploaded!

Nearby

Snow Depth

Not available.

Coastal Water Temperatures

Place Temperature
No Stations Reporting

Earthquake Activity

City Distance Mag. Time & Date
No recent earthquake activity has been reported nearby.
Minimum magnitude displayed is 2.5.

Nearby Weather Stations

There are no personal weather stations in this area.

What do you think?

We're not finished. Please let us know what you like, what you don't like, and what you are still missing.